Time;durP1;ratioP1;P1;durP2;ratioP2;P2;SDS_P1;SDS_P2;PMS_P1;PMS_P2;Temp;Humidity;BMP_temperature;BMP_pressure;BME280_temperature;BME280_humidity;BME280_pressure;Samples;Min_cycle;Max_cycle;Signal;HPM_P1;HPM_P2
2022/01/15 00:01:34;;;;;;;;;;;;;;;22.00;33.99;100987.17;104461;1308;74858;-83
2022/01/15 00:04:03;;;;;;;;;;;;;;;22.00;34.02;100982.33;104659;1308;61185;-82
2022/01/15 00:06:51;;;;;;;;;;;;;;;22.00;34.02;100981.61;104547;1308;61543;-82
2022/01/15 00:09:19;;;;;;;;;;;;;;;22.00;33.99;100980.36;104641;1308;71827;-83
2022/01/15 00:11:51;;;;;;;;;;;;;;;22.00;33.95;100979.48;104511;1308;74858;-84
2022/01/15 00:14:35;;;;;;;;;;;;;;;22.00;34.10;100990.05;104539;1308;61191;-83
2022/01/15 00:17:49;;;;;;;;;;;;;;;22.00;34.27;100989.70;104538;1308;61240;-86
2022/01/15 00:20:19;;;;;;;;;;;;;;;;;;;;;
2022/01/15 00:22:54;;;;;;;;;;;;;;;22.00;33.90;100983.60;104533;1308;74631;-82
2022/01/15 00:25:47;;;;;;;;;;;;;;;22.00;34.02;100976.42;104624;1308;61404;-82
2022/01/15 00:28:15;;;;;;;;;;;;;;;22.00;34.08;100984.45;104456;1308;61070;-83
2022/01/15 00:30:46;;;;;;;;;;;;;;;22.00;34.04;100988.56;104492;1310;73011;-85
2022/01/15 00:33:41;;;;;;;;;;;;;;;22.00;34.11;100998.10;104532;1306;74043;-81
2022/01/15 00:36:34;;;;;;;;;;;;;;;22.01;34.06;100996.80;104652;1306;61137;-83
2022/01/15 00:39:00;;;;;;;;;;;;;;;22.01;34.03;101000.03;104693;1306;61437;-84
2022/01/15 00:41:39;;;;;;;;;;;;;;;22.00;33.91;101005.40;104573;1308;61320;-85
2022/01/15 00:44:24;;;;;;;;;;;;;;;22.00;34.02;101012.41;104398;1307;75843;-83
2022/01/15 00:46:50;;;;;;;;;;;;;;;22.00;33.93;101012.59;104690;1306;61301;-87
2022/01/15 00:49:34;;;;;;;;;;;;;;;22.01;34.18;101010.23;104544;1307;61330;-84
2022/01/15 00:52:27;;;;;;;;;;;;;;;22.01;34.09;101009.31;104677;1306;73776;-82
2022/01/15 00:55:03;;;;;;;;;;;;;;;22.01;34.06;101012.87;104625;1306;75532;-84
2022/01/15 00:57:28;;;;;;;;;;;;;;;22.01;33.91;101015.96;104696;1306;61274;-87
2022/01/15 01:00:19;;;;;;;;;;;;;;;22.01;34.13;101014.69;104555;1306;61421;-83
2022/01/15 01:02:50;;;;;;;;;;;;;;;22.01;33.99;101016.14;104232;1314;73839;-84
2022/01/15 01:05:35;;;;;;;;;;;;;;;22.00;33.93;101008.29;104221;1314;76395;-84
2022/01/15 01:08:17;;;;;;;;;;;;;;;22.00;33.91;101009.92;104304;1314;61864;-85
2022/01/15 01:11:10;;;;;;;;;;;;;;;22.00;33.99;101010.10;104312;1314;61286;-84
2022/01/15 01:25:48;;;;;;;;;;;;;;;22.01;34.09;101004.48;104110;1313;72706;-85
2022/01/15 01:28:43;;;;;;;;;;;;;;;22.01;34.01;101009.30;104301;1314;74908;-82
2022/01/15 01:31:16;;;;;;;;;;;;;;;22.01;34.01;101010.73;103931;1313;61420;-82
2022/01/15 01:34:05;;;;;;;;;;;;;;;22.01;34.06;101006.27;104072;1313;377279;-87
2022/01/15 01:36:45;;;;;;;;;;;;;;;22.01;33.95;101011.10;104295;1313;73910;-82
2022/01/15 01:39:18;;;;;;;;;;;;;;;22.01;34.12;101013.42;104218;1314;75994;-84
2022/01/15 01:42:13;;;;;;;;;;;;;;;22.02;34.04;101018.05;104556;1307;61187;-83
2022/01/15 01:45:00;;;;;;;;;;;;;;;22.02;33.99;101028.63;104666;1308;61559;-83
2022/01/15 01:47:39;;;;;;;;;;;;;;;22.02;33.86;101034.01;104592;1308;72773;-83
2022/01/15 01:50:23;;;;;;;;;;;;;;;22.02;33.98;101033.27;104522;1308;74805;-81
2022/01/15 01:52:59;;;;;;;;;;;;;;;22.02;34.08;101035.58;104631;1307;61177;-82
2022/01/15 01:55:37;;;;;;;;;;;;;;;22.02;33.98;101042.77;104677;1307;61607;-82
2022/01/15 01:58:02;;;;;;;;;;;;;;;22.02;33.96;101053.36;104671;1306;73036;-87
2022/01/15 02:00:52;;;;;;;;;;;;;;;22.02;33.99;101054.61;104560;1307;76012;-81
2022/01/15 02:03:34;;;;;;;;;;;;;;;22.02;34.17;101053.85;104638;1308;61181;-86
2022/01/15 02:06:22;;;;;;;;;;;;;;;22.02;33.92;101054.41;104531;1309;61914;-83
2022/01/15 02:08:48;;;;;;;;;;;;;;;22.02;33.91;101063.73;104289;1314;73870;-84
2022/01/15 02:11:31;;;;;;;;;;;;;;;22.02;33.93;101065.16;104181;1314;75696;-83
2022/01/15 02:16:46;;;;;;;;;;;;;;;22.02;33.95;101069.29;103847;1318;61412;-82
2022/01/15 02:19:32;;;;;;;;;;;;;;;22.01;33.98;101070.75;104007;1318;72714;-86
2022/01/15 02:25:31;;;;;;;;;;;;;;;;;;;;;
2022/01/15 02:28:28;;;;;;;;;;;;;;;22.02;34.11;101074.46;103851;1318;61907;-83
2022/01/15 02:31:03;;;;;;;;;;;;;;;22.02;34.09;101077.34;103837;1318;74014;-83
2022/01/15 02:33:38;;;;;;;;;;;;;;;;;;;;;
2022/01/15 02:36:28;;;;;;;;;;;;;;;22.03;34.02;101088.94;103761;1321;61514;-79
2022/01/15 02:39:13;;;;;;;;;;;;;;;22.03;33.89;101094.63;103529;1320;61308;-84
2022/01/15 02:42:09;;;;;;;;;;;;;;;22.04;33.99;101098.57;103651;1320;73806;-82
2022/01/15 02:45:01;;;;;;;;;;;;;;;22.04;33.91;101099.43;103537;1320;76107;-83
2022/01/15 02:50:39;;;;;;;;;;;;;;;22.04;33.98;101103.91;103775;1318;61320;-85
2022/01/15 02:53:10;;;;;;;;;;;;;;;22.04;33.94;101112.85;104088;1317;72666;-84
2022/01/15 02:55:48;;;;;;;;;;;;;;;22.04;33.97;101114.65;104301;1315;75727;-84
2022/01/15 02:58:30;;;;;;;;;;;;;;;22.04;34.09;101118.61;104316;1312;61160;-88
2022/01/15 03:01:09;;;;;;;;;;;;;;;;;;;;;
2022/01/15 03:03:35;;;;;;;;;;;;;;;22.04;34.03;101121.42;104324;1314;73244;-84
2022/01/15 03:06:36;;;;;;;;;;;;;;;22.04;34.10;101130.06;104237;1312;76299;-82
2022/01/15 03:09:13;;;;;;;;;;;;;;;22.04;34.06;101134.89;104374;1312;61291;-84
2022/01/15 03:11:42;;;;;;;;;;;;;;;22.04;34.06;101133.09;104302;1313;61193;-83
2022/01/15 03:14:31;;;;;;;;;;;;;;;22.04;33.97;101138.83;104253;1314;74175;-84
2022/01/15 03:17:19;;;;;;;;;;;;;;;22.04;33.94;101137.61;104243;1314;74617;-82
2022/01/15 03:19:45;;;;;;;;;;;;;;;22.05;34.19;101151.36;104164;1313;61194;-86
2022/01/15 03:22:38;;;;;;;;;;;;;;;22.05;33.97;101156.75;104274;1313;61235;-84
2022/01/15 03:25:16;;;;;;;;;;;;;;;22.05;33.89;101165.84;103952;1314;73768;-83
2022/01/15 03:27:54;;;;;;;;;;;;;;;22.05;34.06;101169.98;104147;1318;75755;-85
2022/01/15 03:30:40;;;;;;;;;;;;;;;22.05;34.15;101175.52;104176;1317;62335;-84
2022/01/15 03:33:14;;;;;;;;;;;;;;;22.05;34.14;101180.16;104101;1317;61217;-85
2022/01/15 03:36:08;;;;;;;;;;;;;;;;;;;;;
2022/01/15 03:38:55;;;;;;;;;;;;;;;22.06;33.88;101184.96;104129;1316;75740;-83
2022/01/15 03:41:32;;;;;;;;;;;;;;;22.06;33.87;101188.55;104185;1318;61486;-84
2022/01/15 03:44:09;;;;;;;;;;;;;;;22.06;34.13;101193.23;103838;1317;61630;-82
2022/01/15 03:46:53;;;;;;;;;;;;;;;22.06;34.02;101187.45;104181;1318;72848;-86
2022/01/15 03:49:33;;;;;;;;;;;;;;;22.06;33.94;101194.80;104189;1318;76109;-83
2022/01/15 03:52:08;;;;;;;;;;;;;;;22.06;33.90;101199.63;103826;1316;61292;-84
2022/01/15 03:54:36;;;;;;;;;;;;;;;22.07;34.11;101199.61;104136;1316;61199;-88
2022/01/15 03:57:22;;;;;;;;;;;;;;;22.07;34.00;101208.75;103812;1317;72764;-84
2022/01/15 04:00:15;;;;;;;;;;;;;;;22.07;34.08;101212.29;104003;1314;74693;-82
2022/01/15 04:03:06;;;;;;;;;;;;;;;22.07;33.94;101216.43;104495;1306;61269;-83
2022/01/15 04:05:42;;;;;;;;;;;;;;;22.07;34.06;101218.94;104668;1306;61111;-83
2022/01/15 04:08:20;;;;;;;;;;;;;;;22.07;34.09;101216.95;104646;1305;72672;-83
2022/01/15 04:11:05;;;;;;;;;;;;;;;22.07;34.32;101222.84;104641;1306;75803;-83
2022/01/15 04:13:51;;;;;;;;;;;;;;;22.07;33.96;101218.92;104668;1306;61246;-84
2022/01/15 04:16:16;;;;;;;;;;;;;;;22.08;34.13;101221.23;104782;1305;61182;-82
2022/01/15 04:18:51;;;;;;;;;;;;;;;22.08;34.11;101225.34;104743;1306;61385;-83
2022/01/15 04:21:29;;;;;;;;;;;;;;;;;;;;;
2022/01/15 04:24:20;;;;;;;;;;;;;;;22.07;34.23;101224.10;104747;1306;61304;-84
2022/01/15 04:26:47;;;;;;;;;;;;;;;22.07;34.12;101225.73;104681;1306;61635;-86
2022/01/15 04:29:44;;;;;;;;;;;;;;;22.07;34.20;101229.67;104666;1306;71536;-84
2022/01/15 04:32:24;;;;;;;;;;;;;;;22.08;34.22;101233.05;104753;1306;74778;-85
2022/01/15 04:34:59;;;;;;;;;;;;;;;22.08;34.07;101234.98;104652;1306;61516;-85
2022/01/15 04:37:32;;;;;;;;;;;;;;;22.08;33.95;101242.34;104539;1308;61492;-82
2022/01/15 04:39:58;;;;;;;;;;;;;;;22.09;34.10;101253.42;104558;1308;73982;-83
2022/01/15 04:42:35;;;;;;;;;;;;;;;22.08;34.09;101256.84;104549;1308;61375;-83
2022/01/15 04:45:13;;;;;;;;;;;;;;;22.08;34.22;101253.98;104782;1306;61124;-82
2022/01/15 04:47:41;;;;;;;;;;;;;;;22.08;34.04;101256.85;104671;1305;61227;-84
2022/01/15 04:50:12;;;;;;;;;;;;;;;22.08;34.09;101255.58;104740;1306;73908;-83
2022/01/15 04:52:41;;;;;;;;;;;;;;;22.09;33.94;101253.98;104741;1306;75241;-81
2022/01/15 04:55:08;;;;;;;;;;;;;;;22.08;34.00;101250.73;104636;1306;61164;-83
2022/01/15 04:57:34;;;;;;;;;;;;;;;22.08;34.21;101249.84;104781;1306;61157;-82
2022/01/15 05:00:23;;;;;;;;;;;;;;;22.09;34.12;101253.38;104605;1306;72836;-83
2022/01/15 05:03:18;;;;;;;;;;;;;;;22.09;34.03;101254.66;104669;1308;73495;-81
2022/01/15 05:05:52;;;;;;;;;;;;;;;22.09;34.12;101257.35;104677;1305;61166;-86
2022/01/15 05:08:40;;;;;;;;;;;;;;;22.09;33.98;101261.41;104658;1306;61255;-80
2022/01/15 05:11:31;;;;;;;;;;;;;;;22.10;34.26;101266.78;104774;1305;72816;-84
2022/01/15 05:14:07;;;;;;;;;;;;;;;22.09;34.16;101276.83;104724;1306;75810;-84
2022/01/15 05:16:36;;;;;;;;;;;;;;;22.09;34.18;101274.14;104747;1303;61169;-83
2022/01/15 05:19:15;;;;;;;;;;;;;;;22.10;34.22;101275.75;104524;1308;61248;-84
2022/01/15 05:21:55;;;;;;;;;;;;;;;22.10;34.11;101278.61;104544;1308;73023;-84
2022/01/15 05:24:31;;;;;;;;;;;;;;;22.09;34.03;101286.15;104507;1309;74608;-84
2022/01/15 05:27:17;;;;;;;;;;;;;;;22.09;33.96;101289.92;104765;1305;61310;-82
2022/01/15 05:29:51;;;;;;;;;;;;;;;22.10;34.15;101287.02;104570;1308;61272;-84
2022/01/15 05:32:39;;;;;;;;;;;;;;;22.10;33.99;101288.98;104543;1308;73864;-83
2022/01/15 05:35:15;;;;;;;;;;;;;;;22.10;34.15;101299.73;104629;1308;75655;-83
2022/01/15 05:38:04;;;;;;;;;;;;;;;22.10;34.03;101311.39;104631;1309;61245;-87
2022/01/15 05:41:05;;;;;;;;;;;;;;;22.10;34.01;101315.51;104296;1314;61226;-79
2022/01/15 05:43:33;;;;;;;;;;;;;;;22.10;34.14;101321.23;103620;1320;72886;-82
2022/01/15 05:46:18;;;;;;;;;;;;;;;22.10;34.03;101320.70;103614;1320;75755;-82
2022/01/15 05:48:58;;;;;;;;;;;;;;;;;;;;;
2022/01/15 05:51:36;;;;;;;;;;;;;;;22.11;34.03;101322.11;103647;1320;61286;-84
2022/01/15 05:54:24;;;;;;;;;;;;;;;22.11;33.90;101320.48;103652;1318;73707;-81
2022/01/15 05:56:53;;;;;;;;;;;;;;;22.10;33.96;101325.16;103626;1320;74907;-83
2022/01/15 05:59:52;;;;;;;;;;;;;;;22.11;34.04;101327.64;103476;1320;61511;-83
2022/01/15 06:02:38;;;;;;;;;;;;;;;22.12;34.00;101330.48;103538;1319;61184;-86
2022/01/15 06:05:12;;;;;;;;;;;;;;;22.11;34.02;101333.55;103621;1320;73070;-85
2022/01/15 06:07:53;;;;;;;;;;;;;;;22.12;34.20;101337.30;103502;1320;74689;-83
2022/01/15 06:10:36;;;;;;;;;;;;;;;22.12;34.02;101338.89;103406;1320;61996;-83
2022/01/15 06:13:10;;;;;;;;;;;;;;;22.12;33.97;101343.88;103553;1320;61220;-83
2022/01/15 06:15:43;;;;;;;;;;;;;;;22.12;33.77;101354.66;103589;1320;73638;-85
2022/01/15 06:18:39;;;;;;;;;;;;;;;22.13;33.86;101357.13;103726;1317;73586;-83
2022/01/15 06:21:35;;;;;;;;;;;;;;;22.14;34.09;101363.70;104283;1310;61302;-84
2022/01/15 06:24:10;;;;;;;;;;;;;;;22.13;34.02;101361.94;104197;1317;61845;-83
2022/01/15 06:26:48;;;;;;;;;;;;;;;22.13;34.08;101361.41;104127;1315;72211;-81
2022/01/15 06:29:45;;;;;;;;;;;;;;;22.13;33.89;101366.77;104045;1318;76284;-84
2022/01/15 06:32:35;;;;;;;;;;;;;;;22.14;34.09;101371.94;104204;1318;61431;-84
2022/01/15 06:35:30;;;;;;;;;;;;;;;22.14;34.08;101375.13;104171;1317;61095;-83
2022/01/15 06:38:16;;;;;;;;;;;;;;;22.14;34.04;101379.40;104194;1318;74363;-84
2022/01/15 06:41:01;;;;;;;;;;;;;;;;;;;;;
2022/01/15 06:43:47;;;;;;;;;;;;;;;;;;;;;
2022/01/15 06:46:31;;;;;;;;;;;;;;;22.16;34.07;101389.90;104177;1314;61454;-88
2022/01/15 06:49:20;;;;;;;;;;;;;;;22.16;33.98;101398.30;103658;1320;71472;-83
2022/01/15 06:51:53;;;;;;;;;;;;;;;22.17;33.96;101396.64;103806;1318;74722;-83
2022/01/15 06:54:25;;;;;;;;;;;;;;;22.17;34.10;101402.19;103811;1320;61002;-86
2022/01/15 06:57:22;;;;;;;;;;;;;;;22.17;33.85;101403.06;103668;1321;61290;-87
2022/01/15 06:59:49;;;;;;;;;;;;;;;22.17;34.15;101410.59;103753;1320;73123;-83
2022/01/15 07:02:31;;;;;;;;;;;;;;;22.17;33.98;101413.12;104089;1314;76104;-84
2022/01/15 07:05:25;;;;;;;;;;;;;;;22.17;33.96;101413.86;104316;1312;61299;-82
2022/01/15 07:08:02;;;;;;;;;;;;;;;22.17;33.91;101421.18;104411;1312;61651;-83
2022/01/15 07:10:44;;;;;;;;;;;;;;;22.17;34.04;101422.26;104450;1312;73723;-84
2022/01/15 07:13:21;;;;;;;;;;;;;;;22.17;33.88;101422.95;104390;1312;74668;-87
2022/01/15 07:15:58;;;;;;;;;;;;;;;;;;;;;
2022/01/15 07:18:29;;;;;;;;;;;;;;;22.18;33.96;101425.58;104424;1312;61157;-84
2022/01/15 07:21:24;;;;;;;;;;;;;;;22.18;34.04;101429.52;103731;1316;71551;-84
2022/01/15 07:24:00;;;;;;;;;;;;;;;22.18;34.00;101427.56;103670;1318;75016;-86
2022/01/15 07:26:49;;;;;;;;;;;;;;;22.18;33.95;101428.45;104071;1314;61682;-83
2022/01/15 07:29:39;;;;;;;;;;;;;;;22.19;34.05;101431.29;104225;1314;61066;-82
2022/01/15 07:32:18;;;;;;;;;;;;;;;;;;;;;
2022/01/15 07:34:47;;;;;;;;;;;;;;;22.20;34.21;101440.02;103921;1316;74914;-83
2022/01/15 07:37:39;;;;;;;;;;;;;;;22.20;33.98;101446.98;103903;1316;61196;-84
2022/01/15 07:40:14;;;;;;;;;;;;;;;22.21;33.97;101452.30;103992;1316;61281;-85
2022/01/15 07:42:45;;;;;;;;;;;;;;;22.20;33.98;101454.50;103873;1318;72638;-83
2022/01/15 07:45:20;;;;;;;;;;;;;;;22.21;34.09;101456.98;103864;1317;74900;-83
2022/01/15 07:47:48;;;;;;;;;;;;;;;22.21;34.04;101449.77;103913;1318;62428;-84
2022/01/15 07:50:24;;;;;;;;;;;;;;;22.21;34.00;101448.52;103902;1316;61139;-82
2022/01/15 07:53:14;;;;;;;;;;;;;;;22.22;34.02;101451.16;103925;1316;72862;-86
2022/01/15 07:55:49;;;;;;;;;;;;;;;22.23;34.00;101455.78;104132;1316;74897;-83
2022/01/15 07:58:25;;;;;;;;;;;;;;;22.22;33.93;101460.48;103987;1312;61383;-83
2022/01/15 08:00:51;;;;;;;;;;;;;;;22.22;34.03;101457.04;104356;1312;61282;-83
2022/01/15 08:03:28;;;;;;;;;;;;;;;22.23;34.08;101449.85;104370;1312;73768;-83
2022/01/15 08:05:56;;;;;;;;;;;;;;;22.23;33.99;101441.05;104368;1312;74822;-82
2022/01/15 08:08:37;;;;;;;;;;;;;;;22.22;33.91;101432.84;104457;1312;61743;-84
2022/01/15 08:11:12;;;;;;;;;;;;;;;22.23;33.82;101439.95;104418;1312;61179;-84
2022/01/15 08:13:40;;;;;;;;;;;;;;;22.24;33.92;101450.34;104313;1312;72916;-84
2022/01/15 08:16:14;;;;;;;;;;;;;;;22.24;34.09;101451.77;104417;1312;74705;-84
2022/01/15 08:18:49;;;;;;;;;;;;;;;22.24;33.85;101461.42;104428;1312;61186;-82
2022/01/15 08:21:17;;;;;;;;;;;;;;;22.24;34.01;101465.00;104368;1312;61291;-83
2022/01/15 08:23:56;;;;;;;;;;;;;;;22.23;33.86;101466.83;104377;1312;73030;-83
2022/01/15 08:26:28;;;;;;;;;;;;;;;22.24;33.85;101469.49;104445;1311;74850;-83
2022/01/15 08:29:05;;;;;;;;;;;;;;;;;;;;;
2022/01/15 08:31:37;;;;;;;;;;;;;;;22.24;34.09;101474.52;104447;1312;61077;-88
2022/01/15 08:34:10;;;;;;;;;;;;;;;22.24;33.87;101477.92;104347;1312;70789;-83
2022/01/15 08:36:44;;;;;;;;;;;;;;;22.24;34.06;101469.48;104434;1312;75310;-81
2022/01/15 08:39:15;;;;;;;;;;;;;;;22.24;34.09;101477.35;104364;1312;61154;-81
2022/01/15 08:42:06;;;;;;;;;;;;;;;22.24;33.93;101480.97;104263;1312;61175;-86
2022/01/15 08:44:33;;;;;;;;;;;;;;;22.25;34.04;101477.50;104326;1312;72695;-83
2022/01/15 08:47:21;;;;;;;;;;;;;;;22.24;33.99;101470.34;104349;1312;73648;-83
2022/01/15 08:49:47;;;;;;;;;;;;;;;22.25;34.09;101472.63;104432;1312;61186;-84
2022/01/15 08:52:19;;;;;;;;;;;;;;;22.26;34.07;101469.54;104424;1311;61174;-84
2022/01/15 08:54:44;;;;;;;;;;;;;;;22.26;33.89;101474.71;104329;1312;72898;-82
2022/01/15 08:57:38;;;;;;;;;;;;;;;22.26;34.11;101478.29;104352;1312;74900;-82
2022/01/15 09:00:12;;;;;;;;;;;;;;;22.26;34.03;101480.08;104424;1312;61095;-84
2022/01/15 09:02:46;;;;;;;;;;;;;;;22.27;34.12;101477.02;104456;1312;61454;-83
2022/01/15 09:05:21;;;;;;;;;;;;;;;22.27;34.14;101485.09;104351;1312;72829;-82
2022/01/15 09:07:54;;;;;;;;;;;;;;;22.26;34.21;101474.52;104406;1312;74723;-85
2022/01/15 09:10:41;;;;;;;;;;;;;;;;;;;;;
2022/01/15 09:13:12;;;;;;;;;;;;;;;22.28;34.19;101468.34;104440;1312;61242;-83
2022/01/15 09:15:50;;;;;;;;;;;;;;;22.28;34.06;101454.19;104231;1312;73954;-85
2022/01/15 09:18:36;;;;;;;;;;;;;;;22.29;34.11;101451.25;104285;1312;75561;-83
2022/01/15 09:21:16;;;;;;;;;;;;;;;22.29;34.19;101453.23;104308;1312;61742;-83
2022/01/15 09:24:05;;;;;;;;;;;;;;;22.30;34.00;101458.75;104344;1312;61372;-82
2022/01/15 09:27:01;;;;;;;;;;;;;;;22.31;34.19;101451.15;104196;1313;72708;-83
2022/01/15 09:32:29;;;;;;;;;;;;;;;22.32;34.34;101449.28;104292;1312;61407;-82
2022/01/15 09:34:57;;;;;;;;;;;;;;;22.32;34.12;101446.74;104239;1312;61499;-81
2022/01/15 09:37:44;;;;;;;;;;;;;;;;;;;;;
2022/01/15 09:40:19;;;;;;;;;;;;;;;22.33;34.25;101431.83;104323;1312;74980;-83
2022/01/15 09:42:47;;;;;;;;;;;;;;;22.33;34.00;101429.29;104294;1312;61203;-82
2022/01/15 09:45:23;;;;;;;;;;;;;;;22.33;34.11;101429.64;104345;1312;61183;-84
2022/01/15 09:47:50;;;;;;;;;;;;;;;22.33;34.07;101429.29;104397;1312;73298;-80
2022/01/15 09:50:21;;;;;;;;;;;;;;;22.33;34.04;101432.14;104301;1312;74619;-86
2022/01/15 09:53:11;;;;;;;;;;;;;;;22.34;34.00;101427.27;104407;1312;61165;-82
2022/01/15 09:55:46;;;;;;;;;;;;;;;22.34;34.10;101428.52;104402;1312;61274;-83
2022/01/15 09:58:34;;;;;;;;;;;;;;;22.34;34.06;101425.10;104398;1312;73770;-83
2022/01/15 10:01:09;;;;;;;;;;;;;;;22.34;34.14;101426.55;104413;1312;75923;-82
2022/01/15 10:03:44;;;;;;;;;;;;;;;22.34;34.18;101422.20;104410;1312;61288;-84
2022/01/15 10:06:14;;;;;;;;;;;;;;;22.34;34.21;101424.35;104400;1312;61401;-81
2022/01/15 10:08:57;;;;;;;;;;;;;;;22.35;34.26;101419.66;104402;1312;73900;-83
2022/01/15 10:11:51;;;;;;;;;;;;;;;22.34;34.15;101413.95;104320;1312;74750;-84
2022/01/15 10:14:43;;;;;;;;;;;;;;;22.35;34.30;101416.24;104335;1312;61341;-85
2022/01/15 10:17:44;;;;;;;;;;;;;;;22.36;34.15;101417.84;104353;1312;61164;-82
2022/01/15 10:20:37;;;;;;;;;;;;;;;22.36;34.15;101410.66;104089;1318;72813;-83
2022/01/15 10:23:25;;;;;;;;;;;;;;;22.36;34.26;101404.02;104049;1318;75881;-86
2022/01/15 10:26:55;;;;;;;;;;;;;;;22.37;34.02;101410.24;104074;1318;61886;-84
2022/01/15 10:29:11;;;;;;;;;;;;;;;22.37;34.11;101410.40;104315;1312;61177;-84
2022/01/15 10:31:53;;;;;;;;;;;;;;;22.37;34.05;101411.47;104190;1312;74243;-81
2022/01/15 10:34:48;;;;;;;;;;;;;;;22.37;34.16;101415.92;104300;1313;74851;-84
2022/01/15 10:37:37;;;;;;;;;;;;;;;22.38;34.18;101412.80;104199;1315;61224;-84
2022/01/15 10:40:16;;;;;;;;;;;;;;;22.38;34.13;101405.48;104276;1312;61432;-84
2022/01/15 10:42:55;;;;;;;;;;;;;;;;;;;;;
2022/01/15 10:45:31;;;;;;;;;;;;;;;22.39;34.14;101404.52;104328;1312;74946;-80
2022/01/15 10:47:57;;;;;;;;;;;;;;;22.39;34.24;101397.48;104188;1312;61212;-83
2022/01/15 10:50:33;;;;;;;;;;;;;;;22.39;34.09;101400.19;104199;1313;60720;-85
2022/01/15 10:53:17;;;;;;;;;;;;;;;22.40;33.96;101398.55;104295;1313;73179;-82
2022/01/15 10:56:03;;;;;;;;;;;;;;;;;;;;;
2022/01/15 10:58:48;;;;;;;;;;;;;;;;;;;;;
2022/01/15 11:01:30;;;;;;;;;;;;;;;22.40;34.30;101393.48;104630;1306;61619;-82
2022/01/15 11:04:05;;;;;;;;;;;;;;;22.40;34.09;101389.55;104638;1306;73008;-84
2022/01/15 11:06:41;;;;;;;;;;;;;;;22.41;34.13;101393.10;104534;1306;74745;-82
2022/01/15 11:09:06;;;;;;;;;;;;;;;22.40;34.19;101389.52;104455;1306;61724;-85
2022/01/15 11:11:35;;;;;;;;;;;;;;;22.41;34.12;101386.25;104432;1306;61365;-82
2022/01/15 11:14:01;;;;;;;;;;;;;;;22.41;34.26;101383.04;104388;1308;72882;-83
2022/01/15 11:16:26;;;;;;;;;;;;;;;22.40;34.18;101387.00;104414;1308;61319;-83
2022/01/15 11:18:56;;;;;;;;;;;;;;;22.41;34.01;101385.19;104435;1306;61376;-83
2022/01/15 11:21:23;;;;;;;;;;;;;;;22.42;34.03;101382.45;104773;1305;61260;-82
2022/01/15 11:24:04;;;;;;;;;;;;;;;22.42;34.04;101378.50;104745;1306;61294;-84
2022/01/15 11:26:33;;;;;;;;;;;;;;;22.42;34.17;101379.39;104625;1306;75815;-84
2022/01/15 11:29:13;;;;;;;;;;;;;;;22.42;33.95;101376.00;104587;1308;61326;-84
2022/01/15 11:31:41;;;;;;;;;;;;;;;22.42;34.04;101376.71;104607;1306;61169;-81
2022/01/15 11:34:10;;;;;;;;;;;;;;;22.41;34.11;101377.98;104651;1306;61377;-85
2022/01/15 11:36:54;;;;;;;;;;;;;;;22.41;34.06;101378.35;104637;1306;74616;-83
2022/01/15 11:39:29;;;;;;;;;;;;;;;22.42;33.96;101377.06;104774;1306;61249;-84
2022/01/15 11:41:55;;;;;;;;;;;;;;;22.42;34.03;101377.40;104787;1306;61359;-85
2022/01/15 11:44:33;;;;;;;;;;;;;;;22.42;34.10;101379.21;104646;1306;61273;-84
2022/01/15 11:47:01;;;;;;;;;;;;;;;22.42;34.06;101378.11;104769;1306;74792;-86
2022/01/15 11:49:30;;;;;;;;;;;;;;;22.43;34.04;101370.36;104577;1306;61504;-81
2022/01/15 11:51:56;;;;;;;;;;;;;;;22.43;34.02;101368.95;104672;1306;61183;-84
2022/01/15 11:54:44;;;;;;;;;;;;;;;22.43;33.99;101371.98;104699;1306;72690;-83
2022/01/15 11:57:39;;;;;;;;;;;;;;;22.42;33.85;101369.86;104512;1308;75812;-83
2022/01/15 12:00:05;;;;;;;;;;;;;;;22.43;33.98;101366.79;104516;1308;61331;-84
2022/01/15 12:02:45;;;;;;;;;;;;;;;22.43;33.88;101363.55;104552;1307;61242;-83
2022/01/15 12:05:16;;;;;;;;;;;;;;;22.43;33.98;101361.39;104511;1308;73264;-85
2022/01/15 12:08:30;;;;;;;;;;;;;;;;;;;;;
2022/01/15 12:10:57;;;;;;;;;;;;;;;22.42;33.89;101355.32;104689;1306;61181;-82
2022/01/15 12:13:48;;;;;;;;;;;;;;;22.42;33.82;101355.86;104657;1308;61253;-84
2022/01/15 12:16:28;;;;;;;;;;;;;;;22.43;33.75;101353.32;104567;1306;71909;-86
2022/01/15 12:19:10;;;;;;;;;;;;;;;22.43;33.94;101351.19;104619;1306;76011;-85
2022/01/15 12:22:06;;;;;;;;;;;;;;;22.44;34.02;101353.98;104468;1307;61348;-83
2022/01/15 12:24:46;;;;;;;;;;;;;;;22.44;33.86;101352.02;104281;1311;61277;-85
2022/01/15 12:27:25;;;;;;;;;;;;;;;22.44;33.71;101349.14;104342;1311;72900;-81
2022/01/15 12:30:07;;;;;;;;;;;;;;;22.45;33.91;101348.02;104131;1311;73996;-81
2022/01/15 12:32:35;;;;;;;;;;;;;;;22.45;33.90;101345.33;104171;1313;61278;-81
2022/01/15 12:35:22;;;;;;;;;;;;;;;22.45;33.93;101344.58;104140;1311;61499;-82
2022/01/15 12:37:54;;;;;;;;;;;;;;;22.46;33.81;101344.70;104124;1313;73969;-82
2022/01/15 12:40:25;;;;;;;;;;;;;;;22.46;33.91;101345.21;104232;1311;74589;-81
2022/01/15 12:42:54;;;;;;;;;;;;;;;22.47;33.79;101340.86;104165;1313;60510;-81
2022/01/15 12:45:31;;;;;;;;;;;;;;;22.47;33.80;101338.69;104220;1313;61278;-82
2022/01/15 12:47:57;;;;;;;;;;;;;;;22.48;33.77;101336.30;104223;1313;74164;-83
2022/01/15 12:50:26;;;;;;;;;;;;;;;22.48;33.72;101336.10;104072;1313;75803;-82
2022/01/15 12:53:00;;;;;;;;;;;;;;;22.48;33.84;101338.77;104116;1313;62370;-82
2022/01/15 12:55:29;;;;;;;;;;;;;;;22.49;33.79;101342.67;104253;1313;61210;-82
2022/01/15 12:57:55;;;;;;;;;;;;;;;22.49;33.76;101340.16;104141;1313;72834;-83
2022/01/15 13:00:27;;;;;;;;;;;;;;;22.50;33.90;101349.42;104230;1311;61414;-83
2022/01/15 13:03:13;;;;;;;;;;;;;;;22.51;33.77;101353.16;104388;1308;61627;-83
2022/01/15 13:05:42;;;;;;;;;;;;;;;22.51;33.89;101355.98;104556;1307;61462;-83
2022/01/15 13:08:18;;;;;;;;;;;;;;;22.51;33.86;101354.00;104662;1306;73695;-85
2022/01/15 13:11:07;;;;;;;;;;;;;;;;;;;;;
2022/01/15 13:13:38;;;;;;;;;;;;;;;22.51;33.74;101354.34;104728;1306;61183;-83
2022/01/15 13:16:33;;;;;;;;;;;;;;;22.52;33.84;101355.60;104695;1306;61604;-83
2022/01/15 13:19:03;;;;;;;;;;;;;;;22.51;33.67;101354.17;104643;1306;73630;-83
2022/01/15 13:21:45;;;;;;;;;;;;;;;22.52;33.67;101359.91;104551;1306;74656;-83
2022/01/15 13:24:11;;;;;;;;;;;;;;;22.52;33.83;101358.09;104450;1307;61240;-80
2022/01/15 13:26:49;;;;;;;;;;;;;;;;;;;;;
2022/01/15 13:29:23;;;;;;;;;;;;;;;22.52;33.69;101360.42;104703;1306;73727;-84
2022/01/15 13:31:50;;;;;;;;;;;;;;;22.53;33.71;101367.19;104553;1306;74836;-84
2022/01/15 13:34:31;;;;;;;;;;;;;;;22.52;33.53;101368.48;100657;1306;5373396;-84
2022/01/15 13:37:12;;;;;;;;;;;;;;;22.53;33.61;101368.98;104651;1306;61561;-83
2022/01/15 13:39:50;;;;;;;;;;;;;;;;;;;;;
2022/01/15 13:42:21;;;;;;;;;;;;;;;22.53;33.70;101370.25;104533;1308;72666;-84
2022/01/15 13:45:16;;;;;;;;;;;;;;;22.53;33.65;101371.98;104352;1312;61879;-85
2022/01/15 13:47:50;;;;;;;;;;;;;;;22.53;33.69;101373.82;104091;1316;61267;-83
2022/01/15 13:53:59;;;;;;;;;;;;;;;;;;;;;
2022/01/15 13:56:30;;;;;;;;;;;;;;;22.54;33.67;101374.47;104051;1316;61267;-82
2022/01/15 13:59:12;;;;;;;;;;;;;;;22.54;33.50;101378.95;104125;1316;61207;-83
2022/01/15 14:02:03;;;;;;;;;;;;;;;22.55;33.58;101378.69;104119;1316;72859;-83
2022/01/15 14:04:36;;;;;;;;;;;;;;;22.55;33.47;101378.84;104181;1317;74790;-82
2022/01/15 14:07:18;;;;;;;;;;;;;;;22.56;33.55;101383.67;104220;1316;61339;-83
2022/01/15 14:09:58;;;;;;;;;;;;;;;22.56;33.68;101384.55;103921;1316;61588;-84
2022/01/15 14:12:34;;;;;;;;;;;;;;;;;;;;;
2022/01/15 14:15:15;;;;;;;;;;;;;;;22.56;33.55;101386.51;104086;1316;75394;-82
2022/01/15 14:18:06;;;;;;;;;;;;;;;22.57;33.47;101389.86;103846;1317;61225;-82
2022/01/15 14:23:42;;;;;;;;;;;;;;;22.58;33.30;101391.41;104082;1314;72980;-82
2022/01/15 14:26:26;;;;;;;;;;;;;;;22.57;33.31;101392.89;104166;1311;75623;-82